Time;durP1;ratioP1;P1;durP2;ratioP2;P2;SDS_P1;SDS_P2;PMS_P1;PMS_P2;Temp;Humidity;BMP_temperature;BMP_pressure;BME280_temperature;BME280_humidity;BME280_pressure;Samples;Min_cycle;Max_cycle;Signal;HPM_P1;HPM_P2
2023/05/26 00:00:44;;;;;;;19.77;2.95;;;;;;;11.88;100.00;101790.91;5215837;28;20037;-70
2023/05/26 00:03:16;;;;;;;19.65;3.40;;;;;;;12.02;100.00;101804.56;5215990;28;20099;-70
2023/05/26 00:05:47;;;;;;;17.95;3.42;;;;;;;11.95;100.00;101795.09;5213996;28;20478;-71
2023/05/26 00:08:17;;;;;;;13.85;2.55;;;;;;;11.87;100.00;101793.53;5214207;28;20032;-70
2023/05/26 00:10:47;;;;;;;16.25;2.92;;;;;;;11.86;100.00;101790.06;5216373;28;20498;-71
2023/05/26 00:13:18;;;;;;;19.30;3.30;;;;;;;11.89;100.00;101803.09;5211863;28;20495;-71
2023/05/26 00:15:48;;;;;;;17.88;3.05;;;;;;;11.73;100.00;101795.56;5209452;28;20049;-70
2023/05/26 00:18:19;;;;;;;21.05;3.33;;;;;;;11.70;100.00;101801.75;5214371;28;20029;-71
2023/05/26 00:20:49;;;;;;;21.63;4.20;;;;;;;11.61;100.00;101807.19;5211870;28;20052;-70
2023/05/26 00:23:20;;;;;;;20.25;3.42;;;;;;;11.65;100.00;101807.97;5207777;28;20025;-71
2023/05/26 00:25:50;;;;;;;17.02;3.05;;;;;;;11.34;100.00;101801.59;5214511;28;20483;-71
2023/05/26 00:28:21;;;;;;;19.52;3.53;;;;;;;11.19;100.00;101805.38;5216085;28;20050;-70
2023/05/26 00:30:51;;;;;;;16.25;3.05;;;;;;;11.20;100.00;101803.59;5198443;28;20106;-69
2023/05/26 00:33:21;;;;;;;9.50;2.38;;;;;;;11.27;100.00;101800.00;5215894;28;20033;-71
2023/05/26 00:35:52;;;;;;;12.93;2.58;;;;;;;11.18;100.00;101795.78;5215121;28;20184;-71
2023/05/26 00:38:22;;;;;;;10.50;2.80;;;;;;;11.13;100.00;101797.59;5215925;28;20256;-71
2023/05/26 00:40:52;;;;;;;10.23;2.60;;;;;;;10.96;100.00;101804.03;5213273;28;20367;-70
2023/05/26 00:43:23;;;;;;;15.18;2.78;;;;;;;10.86;100.00;101807.69;5214447;28;20426;-71
2023/05/26 00:45:53;;;;;;;10.63;2.72;;;;;;;10.79;100.00;101813.06;5215225;28;20200;-72
2023/05/26 00:48:23;;;;;;;8.88;2.50;;;;;;;10.70;100.00;101811.44;5198271;28;20036;-71
2023/05/26 00:50:54;;;;;;;12.20;2.67;;;;;;;10.76;100.00;101815.72;5212713;28;20544;-71
2023/05/26 00:53:24;;;;;;;13.27;3.03;;;;;;;10.78;100.00;101813.94;5215322;28;20117;-72
2023/05/26 00:55:55;;;;;;;12.93;2.92;;;;;;;10.82;100.00;101805.19;5217357;28;20200;-71
2023/05/26 00:58:26;;;;;;;15.25;2.53;;;;;;;10.71;100.00;101812.31;5210672;28;20022;-71
2023/05/26 01:00:57;;;;;;;14.02;2.40;;;;;;;10.65;100.00;101815.06;5211014;28;20032;-70
2023/05/26 01:03:27;;;;;;;16.65;2.88;;;;;;;10.62;100.00;101813.34;5218932;28;20051;-71
2023/05/26 01:05:58;;;;;;;14.88;2.67;;;;;;;10.53;100.00;101807.41;5193612;28;20420;-71
2023/05/26 01:08:29;;;;;;;13.43;3.05;;;;;;;10.51;100.00;101817.88;5213117;28;20032;-71
2023/05/26 01:11:04;;;;;;;20.15;3.08;;;;;;;10.58;100.00;101810.78;5207756;28;20023;-72
2023/05/26 01:14:03;;;;;;;15.65;2.67;;;;;;;10.55;100.00;101810.84;5217718;28;20032;-71
2023/05/26 01:16:39;;;;;;;15.88;2.50;;;;;;;10.53;100.00;101817.84;5191363;28;20083;-70
2023/05/26 01:19:52;;;;;;;15.82;2.92;;;;;;;10.51;100.00;101814.41;5209133;28;20453;-70
2023/05/26 01:22:39;;;;;;;15.88;2.75;;;;;;;10.54;100.00;101815.19;5209246;28;20037;-71
2023/05/26 01:25:41;;;;;;;18.85;3.42;;;;;;;10.56;100.00;101812.56;5207578;28;20037;-70
2023/05/26 01:28:16;;;;;;;12.95;2.40;;;;;;;10.46;100.00;101810.97;5208483;28;20435;-71
2023/05/26 01:30:48;;;;;;;15.02;3.03;;;;;;;10.38;100.00;101815.47;5216320;28;20051;-72
2023/05/26 01:33:19;;;;;;;12.18;2.63;;;;;;;10.38;100.00;101815.47;5212848;28;20052;-71
2023/05/26 01:35:49;;;;;;;15.20;3.65;;;;;;;10.25;100.00;101826.97;5212859;28;20110;-71
2023/05/26 01:38:19;;;;;;;15.77;3.30;;;;;;;10.27;100.00;101825.19;5191181;28;20032;-72
2023/05/26 01:41:06;;;;;;;19.15;3.42;;;;;;;10.33;100.00;101831.22;5208129;28;20060;-70
2023/05/26 01:43:47;;;;;;;20.50;4.05;;;;;;;10.24;100.00;101833.97;5209273;28;20033;-70
2023/05/26 01:46:30;;;;;;;17.38;3.90;;;;;;;10.28;100.00;101826.94;5210384;28;20507;-71
2023/05/26 01:49:04;;;;;;;19.95;3.38;;;;;;;10.16;100.00;101838.41;5214466;28;20020;-72
2023/05/26 01:51:36;;;;;;;16.30;2.88;;;;;;;10.16;100.00;101833.19;5210738;28;20116;-71
2023/05/26 01:54:09;;;;;;;16.83;2.97;;;;;;;10.19;100.00;101832.31;5216263;28;20040;-72
2023/05/26 01:56:39;;;;;;;18.65;3.20;;;;;;;10.11;100.00;101839.38;5196570;28;20044;-72
2023/05/26 01:59:11;;;;;;;17.73;3.08;;;;;;;10.08;100.00;101829.84;5211370;28;20033;-71
2023/05/26 02:01:42;;;;;;;15.48;3.50;;;;;;;10.08;100.00;101832.44;5208087;28;20029;-71
2023/05/26 02:04:12;;;;;;;25.75;3.83;;;;;;;10.06;100.00;101830.72;5208923;28;20041;-71
2023/05/26 02:06:42;;;;;;;24.13;3.78;;;;;;;10.19;100.00;101833.16;5214385;28;20055;-71
2023/05/26 02:09:13;;;;;;;14.35;2.72;;;;;;;10.06;100.00;101830.72;5205353;28;20033;-72
2023/05/26 02:11:43;;;;;;;14.50;2.78;;;;;;;10.27;100.00;101840.88;5210884;28;20025;-71
2023/05/26 02:14:13;;;;;;;15.30;2.97;;;;;;;10.28;100.00;101832.16;5211649;28;20120;-72
2023/05/26 02:16:44;;;;;;;25.50;2.88;;;;;;;10.31;100.00;101826.91;5193820;28;20040;-72
2023/05/26 02:19:14;;;;;;;18.52;3.03;;;;;;;10.15;100.00;101831.47;5211255;28;20418;-72
2023/05/26 02:21:44;;;;;;;19.75;3.10;;;;;;;10.15;100.00;101841.91;5214891;28;20028;-71
2023/05/26 02:24:15;;;;;;;19.42;2.67;;;;;;;10.02;100.00;101839.50;5203516;28;20030;-71
2023/05/26 02:26:45;;;;;;;15.43;2.58;;;;;;;10.05;100.00;101839.47;5211998;28;20028;-71
2023/05/26 02:29:15;;;;;;;17.27;3.22;;;;;;;9.86;100.00;101853.59;5213594;28;20136;-71
2023/05/26 02:31:46;;;;;;;18.45;2.40;;;;;;;9.84;100.00;101843.16;5213490;28;20037;-71
2023/05/26 02:34:16;;;;;;;20.15;2.60;;;;;;;9.92;100.00;101845.69;5187866;28;20399;-72
2023/05/26 02:36:46;;;;;;;17.88;2.63;;;;;;;9.83;100.00;101851.03;5212743;28;20032;-71
2023/05/26 02:39:17;;;;;;;23.92;3.35;;;;;;;9.96;100.00;101844.78;5210151;28;20029;-72
2023/05/26 02:41:48;;;;;;;20.55;3.00;;;;;;;9.95;100.00;101853.47;5211554;28;20139;-71
2023/05/26 02:44:18;;;;;;;14.15;2.83;;;;;;;9.84;100.00;101852.75;5208951;28;20120;-71
2023/05/26 02:46:48;;;;;;;15.25;2.65;;;;;;;9.74;100.00;101851.13;5213731;28;20039;-69
2023/05/26 02:49:20;;;;;;;15.18;2.45;;;;;;;9.85;100.00;101854.47;5207748;28;20029;-71
2023/05/26 02:51:50;;;;;;;17.90;2.83;;;;;;;9.82;100.00;101855.38;5194036;28;20027;-71
2023/05/26 02:54:20;;;;;;;20.85;2.97;;;;;;;9.74;100.00;101858.97;5214285;28;20028;-73
2023/05/26 02:56:51;;;;;;;18.40;2.85;;;;;;;9.66;100.00;101852.97;5211810;28;20495;-72
2023/05/26 02:59:21;;;;;;;16.73;2.75;;;;;;;9.59;100.00;101859.13;5209357;28;20025;-72
2023/05/26 03:01:51;;;;;;;17.80;2.70;;;;;;;9.73;100.00;101859.84;5208041;28;20481;-71
2023/05/26 03:04:21;;;;;;;16.02;2.45;;;;;;;9.59;100.00;101849.56;5206109;28;20069;-71
2023/05/26 03:06:52;;;;;;;18.98;3.15;;;;;;;9.55;100.00;101857.44;5208593;28;20032;-71
2023/05/26 03:09:22;;;;;;;15.70;2.53;;;;;;;9.58;100.00;101858.28;5205520;28;20096;-71
2023/05/26 03:11:52;;;;;;;20.48;2.85;;;;;;;9.32;100.00;101856.81;5210787;28;20052;-72
2023/05/26 03:14:23;;;;;;;16.65;2.58;;;;;;;9.48;100.00;101864.47;5211095;28;20062;-72
2023/05/26 03:16:53;;;;;;;14.38;3.40;;;;;;;9.40;100.00;101862.81;5209578;28;20032;-72
2023/05/26 03:19:23;;;;;;;15.13;2.50;;;;;;;9.65;100.00;101853.88;5209358;28;20032;-73
2023/05/26 03:21:55;;;;;;;13.75;2.70;;;;;;;9.64;100.00;101855.59;5209102;28;20119;-71
2023/05/26 03:24:25;;;;;;;15.55;2.80;;;;;;;9.69;100.00;101860.75;5205338;28;20036;-71
2023/05/26 03:26:56;;;;;;;12.15;2.70;;;;;;;9.75;100.00;101855.47;5188990;28;20402;-70
2023/05/26 03:29:27;;;;;;;17.52;3.58;;;;;;;9.70;100.00;101863.38;5210458;28;20025;-71
2023/05/26 03:31:57;;;;;;;17.98;3.17;;;;;;;9.74;100.00;101852.00;5194432;28;20212;-72
2023/05/26 03:34:28;;;;;;;19.35;3.97;;;;;;;9.83;100.00;101866.69;5209177;22;20056;-75
2023/05/26 03:36:58;;;;;;;17.85;3.20;;;;;;;9.81;100.00;101871.06;5207819;28;20028;-74
2023/05/26 03:39:28;;;;;;;15.48;2.85;;;;;;;9.89;100.00;101877.94;5208855;28;20048;-73
2023/05/26 03:41:59;;;;;;;21.63;3.63;;;;;;;9.98;100.00;101874.34;5209523;28;20490;-73
2023/05/26 03:44:30;;;;;;;13.25;3.38;;;;;;;10.03;100.00;101875.19;5197652;28;20032;-74
2023/05/26 03:47:01;;;;;;;20.77;2.67;;;;;;;10.06;100.00;101877.75;5191932;28;20033;-75
2023/05/26 03:49:31;;;;;;;19.73;3.53;;;;;;;10.10;100.00;101874.22;5184910;28;20037;-73
2023/05/26 03:52:02;;;;;;;10.48;2.58;;;;;;;10.05;100.00;101876.03;5191910;28;20083;-73
2023/05/26 03:54:32;;;;;;;17.27;2.72;;;;;;;10.12;100.00;101883.75;5191934;28;20560;-73
2023/05/26 03:57:02;;;;;;;15.27;2.50;;;;;;;10.17;100.00;101878.50;5187506;28;20036;-73
2023/05/26 03:59:33;;;;;;;11.13;2.88;;;;;;;10.20;100.00;101875.81;5193729;28;20038;-73
2023/05/26 04:02:03;;;;;;;16.48;2.42;;;;;;;10.23;100.00;101875.78;5187062;28;20552;-73
2023/05/26 04:04:34;;;;;;;21.17;3.10;;;;;;;10.24;100.00;101878.38;5187734;28;20029;-72
2023/05/26 04:07:05;;;;;;;24.20;3.20;;;;;;;10.41;100.00;101881.63;5188451;28;20021;-73
2023/05/26 04:09:35;;;;;;;15.63;2.80;;;;;;;10.33;100.00;101878.25;5186662;28;20029;-73
2023/05/26 04:12:05;;;;;;;14.82;2.63;;;;;;;10.40;100.00;101885.13;5188726;28;20117;-71
2023/05/26 04:14:36;;;;;;;24.63;3.60;;;;;;;10.48;100.00;101882.41;5193223;28;20029;-73
2023/05/26 04:17:06;;;;;;;18.02;3.10;;;;;;;10.64;100.00;101883.88;5190818;28;20056;-72
2023/05/26 04:19:36;;;;;;;13.70;2.25;;;;;;;10.68;100.00;101877.75;5191615;28;20025;-73
2023/05/26 04:22:06;;;;;;;15.98;3.47;;;;;;;10.60;100.00;101890.06;5189761;28;20088;-73
2023/05/26 04:24:37;;;;;;;20.23;3.45;;;;;;;10.76;100.00;101891.56;5187057;28;20095;-73
2023/05/26 04:27:07;;;;;;;12.30;2.35;;;;;;;10.98;100.00;101892.94;5189623;28;20038;-73
2023/05/26 04:29:38;;;;;;;10.10;2.38;;;;;;;11.31;99.04;101895.88;5195832;28;20455;-73
2023/05/26 04:32:08;;;;;;;14.00;2.70;;;;;;;11.55;96.40;101900.66;5193682;28;20467;-72
2023/05/26 04:34:39;;;;;;;16.23;2.53;;;;;;;11.98;95.45;101891.97;5192664;28;20362;-73
2023/05/26 04:37:10;;;;;;;16.00;2.72;;;;;;;11.91;93.24;101897.38;5187841;28;20025;-72
2023/05/26 04:39:41;;;;;;;19.88;2.70;;;;;;;12.49;93.85;101895.25;5194352;28;20029;-73
2023/05/26 04:42:12;;;;;;;15.35;2.88;;;;;;;13.54;88.02;101894.41;5189046;28;20030;-73
2023/05/26 04:44:43;;;;;;;18.75;3.47;;;;;;;14.26;84.20;101897.63;5194863;28;20541;-74
2023/05/26 04:47:16;;;;;;;20.38;3.10;;;;;;;14.97;80.36;101899.75;5190193;28;20030;-72
2023/05/26 04:49:47;;;;;;;14.35;2.85;;;;;;;15.34;78.89;101899.44;5194941;28;20553;-74
2023/05/26 04:52:17;;;;;;;15.80;2.90;;;;;;;15.37;76.53;101902.81;5190082;28;20029;-73
2023/05/26 04:54:47;;;;;;;16.10;2.97;;;;;;;15.70;76.11;101899.00;5193582;28;20498;-73
2023/05/26 04:57:18;;;;;;;14.20;2.53;;;;;;;16.17;74.33;101906.06;5191905;28;20061;-73
2023/05/26 04:59:49;;;;;;;18.00;2.90;;;;;;;16.46;72.06;101903.22;5193025;28;20025;-72
2023/05/26 05:02:19;;;;;;;12.80;2.75;;;;;;;17.14;71.19;101909.25;5186689;28;20075;-73
2023/05/26 05:04:50;;;;;;;15.13;3.22;;;;;;;16.34;72.08;101908.06;5190190;28;20021;-73
2023/05/26 05:07:20;;;;;;;17.52;3.25;;;;;;;16.88;71.46;101898.88;5189479;28;20033;-74
2023/05/26 05:09:51;;;;;;;22.98;3.30;;;;;;;16.80;68.41;101903.63;5189154;28;20031;-73
2023/05/26 05:12:21;;;;;;;14.88;2.90;;;;;;;17.04;71.07;101897.34;5190556;28;20064;-73
2023/05/26 05:14:51;;;;;;;16.73;2.60;;;;;;;17.11;70.94;101904.13;5191255;28;20173;-74
2023/05/26 05:17:22;;;;;;;15.35;2.83;;;;;;;18.02;68.62;101900.09;5181453;28;20030;-73
2023/05/26 05:19:52;;;;;;;11.57;2.47;;;;;;;18.11;66.30;101907.63;5191805;28;20048;-74
2023/05/26 05:22:22;;;;;;;13.63;2.72;;;;;;;18.54;66.23;101909.19;5189664;28;20419;-73
2023/05/26 05:24:53;;;;;;;10.20;2.60;;;;;;;18.69;65.89;101911.13;5186178;28;20263;-74
2023/05/26 05:27:23;;;;;;;12.38;2.28;;;;;;;19.54;63.62;101905.03;5186679;28;20483;-73
2023/05/26 05:29:53;;;;;;;13.90;2.58;;;;;;;19.11;62.77;101909.91;5173699;28;20033;-75
2023/05/26 05:32:24;;;;;;;15.45;2.97;;;;;;;19.05;61.94;101908.41;5187795;28;20030;-73
2023/05/26 05:34:55;;;;;;;17.47;3.20;;;;;;;18.73;64.14;101918.84;5192652;28;20634;-74
2023/05/26 05:37:25;;;;;;;13.30;2.58;;;;;;;18.30;66.54;101923.53;5187199;28;20277;-74
2023/05/26 05:39:56;;;;;;;10.32;2.58;;;;;;;18.71;65.29;101915.38;5193375;28;20079;-73
2023/05/26 05:42:26;;;;;;;17.65;2.72;;;;;;;18.28;66.71;101920.13;5191702;28;20028;-74
2023/05/26 05:44:56;;;;;;;18.52;2.85;;;;;;;17.02;69.29;101934.41;5188347;28;20269;-74
2023/05/26 05:47:27;;;;;;;14.45;2.47;;;;;;;15.95;72.52;101935.91;5187834;28;20495;-72
2023/05/26 05:49:57;;;;;;;13.90;2.40;;;;;;;15.61;73.38;101945.91;5189159;28;20067;-74
2023/05/26 05:52:27;;;;;;;13.15;2.83;;;;;;;16.13;72.92;101937.88;5186656;28;20026;-73
2023/05/26 05:54:57;;;;;;;13.32;2.53;;;;;;;16.63;71.19;101939.50;5189848;28;20349;-73
2023/05/26 05:57:28;;;;;;;13.45;2.35;;;;;;;15.90;71.78;101945.78;5186613;28;20087;-74
2023/05/26 05:59:58;;;;;;;15.57;2.47;;;;;;;16.05;72.23;101942.59;5191009;28;20503;-73
2023/05/26 06:02:28;;;;;;;17.38;2.97;;;;;;;16.52;71.42;101939.94;5187762;28;20157;-73
2023/05/26 06:04:59;;;;;;;14.18;2.72;;;;;;;16.66;72.23;101942.91;5189884;28;20349;-73
2023/05/26 06:07:30;;;;;;;18.65;2.60;;;;;;;16.59;71.72;101945.84;5188137;28;20393;-73
2023/05/26 06:10:00;;;;;;;14.73;2.50;;;;;;;17.15;70.17;101942.69;5191002;28;20029;-73
2023/05/26 06:12:30;;;;;;;17.75;3.35;;;;;;;16.70;70.17;101939.22;5189779;28;20291;-73
2023/05/26 06:15:00;;;;;;;13.85;2.65;;;;;;;16.59;70.65;101951.13;5191735;28;20017;-73
2023/05/26 06:17:31;;;;;;;17.85;2.92;;;;;;;15.76;73.56;101961.22;5185124;28;20071;-74
2023/05/26 06:20:02;;;;;;;19.02;2.90;;;;;;;16.18;73.64;101952.63;5189230;28;20116;-73
2023/05/26 06:22:36;;;;;;;13.82;2.88;;;;;;;16.17;73.48;101955.31;5189434;28;20136;-73
2023/05/26 06:25:06;;;;;;;14.27;3.17;;;;;;;15.80;73.70;101949.63;5183428;28;20467;-74
2023/05/26 06:27:37;;;;;;;12.95;2.42;;;;;;;15.49;76.46;101956.88;5188567;28;20127;-74
2023/05/26 06:30:07;;;;;;;16.52;2.50;;;;;;;15.61;75.04;101957.34;5189733;28;20025;-74
2023/05/26 06:32:38;;;;;;;17.98;3.03;;;;;;;15.52;74.83;101962.06;5184626;28;20029;-74
2023/05/26 06:35:08;;;;;;;19.23;3.83;;;;;;;15.07;77.06;101961.75;5188551;28;20103;-73
2023/05/26 06:37:39;;;;;;;18.88;2.90;;;;;;;15.21;76.67;101956.88;5190207;28;20025;-73
2023/05/26 06:40:09;;;;;;;12.98;2.50;;;;;;;15.18;76.63;101949.09;5189409;28;20060;-72
2023/05/26 06:42:41;;;;;;;17.40;2.92;;;;;;;14.79;77.82;101957.38;5190742;28;20076;-72
2023/05/26 06:45:11;;;;;;;14.18;2.78;;;;;;;15.10;78.33;101964.28;5189060;28;20064;-74
2023/05/26 06:47:41;;;;;;;23.05;3.28;;;;;;;15.27;78.97;101969.88;5188822;28;20259;-73
2023/05/26 06:50:12;;;;;;;15.75;2.72;;;;;;;14.79;78.40;101967.91;5184563;28;20420;-73
2023/05/26 06:52:42;;;;;;;13.68;3.47;;;;;;;14.95;77.77;101961.25;5187574;28;20048;-72
2023/05/26 06:55:12;;;;;;;16.55;3.65;;;;;;;15.12;78.54;101957.19;5187001;28;20155;-73
2023/05/26 06:57:43;;;;;;;15.32;3.20;;;;;;;15.13;78.65;101964.19;5187248;28;20033;-73
2023/05/26 07:00:14;;;;;;;13.20;2.70;;;;;;;14.84;79.18;101972.13;5188460;28;20030;-73
2023/05/26 07:02:44;;;;;;;17.90;3.40;;;;;;;15.20;78.66;101972.75;5189839;28;20347;-73
2023/05/26 07:05:15;;;;;;;15.55;3.13;;;;;;;15.55;76.73;101970.69;5187122;28;20443;-72
2023/05/26 07:07:45;;;;;;;19.00;3.13;;;;;;;15.86;76.24;101968.75;5189753;28;20029;-74
2023/05/26 07:10:15;;;;;;;12.77;2.70;;;;;;;16.00;76.96;101963.84;5186579;28;20022;-72
2023/05/26 07:12:45;;;;;;;17.60;3.20;;;;;;;15.96;73.99;101975.44;5189405;28;20083;-73
2023/05/26 07:15:16;;;;;;;15.30;2.92;;;;;;;15.19;77.76;101978.94;5185616;28;20030;-72
2023/05/26 07:17:46;;;;;;;18.40;3.50;;;;;;;15.10;77.65;101977.47;5185286;28;20483;-73
2023/05/26 07:20:16;;;;;;;13.43;2.55;;;;;;;14.98;77.21;101985.72;5187810;28;20117;-73
2023/05/26 07:22:47;;;;;;;16.50;3.17;;;;;;;14.50;80.19;101985.47;5190139;28;20025;-74
2023/05/26 07:25:17;;;;;;;12.80;2.80;;;;;;;14.87;78.26;101987.81;5186530;28;20030;-73
2023/05/26 07:27:47;;;;;;;14.32;3.10;;;;;;;14.76;79.40;101986.44;5188341;28;20541;-74
2023/05/26 07:30:19;;;;;;;16.15;2.72;;;;;;;15.16;79.56;101985.16;5187643;28;20026;-72
2023/05/26 07:32:49;;;;;;;15.18;3.38;;;;;;;15.22;79.73;101990.22;5187997;28;20028;-72
2023/05/26 07:35:19;;;;;;;13.48;3.05;;;;;;;15.31;78.42;101989.97;5183198;28;20021;-74
2023/05/26 07:37:50;;;;;;;15.80;2.80;;;;;;;15.36;77.97;101987.19;5184458;28;20025;-72
2023/05/26 07:40:20;;;;;;;18.00;3.47;;;;;;;15.06;78.83;101989.00;5185431;28;20585;-73
2023/05/26 07:42:50;;;;;;;17.90;3.10;;;;;;;15.26;78.14;101991.88;5185088;28;20766;-71
2023/05/26 07:45:21;;;;;;;19.88;2.58;;;;;;;15.29;75.90;101994.44;5190334;28;20034;-74
2023/05/26 07:47:51;;;;;;;15.80;3.13;;;;;;;15.40;77.38;101994.91;5185903;28;20096;-74
2023/05/26 07:50:21;;;;;;;15.95;3.05;;;;;;;15.86;77.20;101984.56;5187561;28;20049;-74
2023/05/26 07:52:52;;;;;;;15.10;2.95;;;;;;;16.74;74.82;101987.50;5189673;28;20038;-74
2023/05/26 07:55:22;;;;;;;16.08;3.00;;;;;;;17.12;73.04;101980.66;5184354;28;20057;-74
2023/05/26 07:57:52;;;;;;;16.45;3.25;;;;;;;17.91;69.68;101976.47;5184734;28;20530;-74
2023/05/26 08:00:23;;;;;;;16.45;2.90;;;;;;;18.79;67.86;101971.53;5184829;28;20026;-74
2023/05/26 08:02:53;;;;;;;13.82;3.03;;;;;;;18.98;67.11;101973.25;5187346;28;20128;-73
2023/05/26 08:05:26;;;;;;;14.77;2.53;;;;;;;19.21;64.91;101964.19;5189314;28;20029;-74
2023/05/26 08:07:56;;;;;;;21.27;3.25;;;;;;;19.49;63.71;101970.75;5188930;28;20029;-74
2023/05/26 08:10:27;;;;;;;13.68;2.72;;;;;;;19.77;62.69;101973.69;5187854;28;20029;-74
2023/05/26 08:12:57;;;;;;;14.63;2.50;;;;;;;20.12;62.81;101967.44;5189257;28;20497;-73
2023/05/26 08:15:27;;;;;;;12.77;2.83;;;;;;;20.19;62.38;101962.69;5188406;28;20033;-74
2023/05/26 08:17:58;;;;;;;13.68;2.83;;;;;;;21.47;62.52;101959.81;5188174;28;20312;-74
2023/05/26 08:20:28;;;;;;;17.25;3.25;;;;;;;21.33;60.28;101965.97;5189310;28;20298;-74
2023/05/26 08:22:59;;;;;;;11.38;2.47;;;;;;;22.39;58.48;101966.63;5190120;28;20040;-75
2023/05/26 08:25:29;;;;;;;11.35;2.70;;;;;;;20.14;63.82;101970.88;5187797;28;20022;-75
2023/05/26 08:27:59;;;;;;;12.65;3.13;;;;;;;19.64;64.80;101977.91;5189623;28;20033;-75
2023/05/26 08:30:30;;;;;;;9.60;2.28;;;;;;;19.42;63.36;101971.13;5194677;28;20071;-75
2023/05/26 08:33:00;;;;;;;14.05;2.67;;;;;;;19.19;64.56;101974.03;5186420;28;20307;-74
2023/05/26 08:35:30;;;;;;;11.68;2.78;;;;;;;19.09;66.38;101976.22;5189556;28;20033;-73
2023/05/26 08:38:00;;;;;;;15.50;2.83;;;;;;;20.36;61.22;101959.97;5188252;28;20051;-74
2023/05/26 08:40:33;;;;;;;10.60;2.87;;;;;;;22.06;58.40;101943.84;5188790;28;20296;-74
2023/05/26 08:43:07;;;;;;;11.68;2.72;;;;;;;22.74;57.12;101938.59;5188785;28;20283;-74
2023/05/26 08:45:38;;;;;;;12.63;2.80;;;;;;;23.79;54.74;101937.72;5190530;28;20081;-74
2023/05/26 08:48:11;;;;;;;10.32;2.63;;;;;;;23.92;56.07;101937.75;5187917;28;20338;-74
2023/05/26 08:50:43;;;;;;;11.77;2.75;;;;;;;22.35;59.23;101943.75;5192615;28;20025;-74
2023/05/26 08:53:13;;;;;;;10.65;2.65;;;;;;;19.13;63.56;101956.59;5192996;28;20033;-76
2023/05/26 08:55:44;;;;;;;15.73;3.08;;;;;;;19.00;66.81;101954.63;5189281;28;20028;-74
2023/05/26 08:58:16;;;;;;;13.82;2.65;;;;;;;21.17;60.50;101941.19;5185179;28;20030;-74
2023/05/26 09:00:46;;;;;;;12.82;3.03;;;;;;;20.82;62.19;101944.94;5192014;28;20032;-74
2023/05/26 09:03:17;;;;;;;10.98;2.72;;;;;;;23.05;55.71;101941.84;5187293;28;20476;-74
2023/05/26 09:05:47;;;;;;;11.40;2.30;;;;;;;23.09;56.08;101945.16;5191220;28;20025;-75
2023/05/26 09:08:17;;;;;;;12.43;3.63;;;;;;;23.06;56.31;101940.03;5190219;28;20029;-74
2023/05/26 09:10:48;;;;;;;16.05;2.78;;;;;;;22.71;56.45;101944.13;5190288;28;20056;-73
2023/05/26 09:13:18;;;;;;;11.30;3.20;;;;;;;22.13;57.66;101945.16;5187224;28;20036;-74
2023/05/26 09:15:51;;;;;;;12.60;2.72;;;;;;;20.69;60.11;101949.22;5188556;28;20026;-74
2023/05/26 09:18:22;;;;;;;15.32;2.80;;;;;;;19.94;62.24;101951.63;5189545;28;20018;-73
2023/05/26 09:20:52;;;;;;;15.93;3.58;;;;;;;20.96;61.61;101936.22;5189561;28;20034;-73
2023/05/26 09:23:22;;;;;;;15.77;3.08;;;;;;;21.36;59.14;101941.84;5186663;28;20029;-74
2023/05/26 09:25:52;;;;;;;15.60;3.00;;;;;;;23.26;56.45;101931.59;5189183;28;20549;-74
2023/05/26 09:28:23;;;;;;;16.52;2.90;;;;;;;22.71;55.97;101934.31;5189059;28;20299;-73
2023/05/26 09:30:53;;;;;;;14.60;2.88;;;;;;;21.65;56.17;101942.81;5191952;28;20025;-74
2023/05/26 09:33:23;;;;;;;11.18;2.38;;;;;;;21.51;57.17;101940.06;5185192;28;20017;-74
2023/05/26 09:35:54;;;;;;;9.27;2.50;;;;;;;22.11;57.10;101939.09;5209615;22;20057;-75
2023/05/26 09:38:24;;;;;;;14.40;3.10;;;;;;;22.03;56.08;101941.34;5187329;28;20060;-74
2023/05/26 09:40:54;;;;;;;14.07;3.22;;;;;;;20.89;58.59;101946.34;5183589;28;20291;-71
2023/05/26 09:43:25;;;;;;;10.63;2.47;;;;;;;21.36;59.01;101948.94;5182737;28;20025;-73
2023/05/26 09:45:55;;;;;;;15.75;2.70;;;;;;;20.91;58.73;101948.94;5168418;28;20289;-75
2023/05/26 09:48:26;;;;;;;14.18;2.95;;;;;;;21.70;58.58;101946.91;5159114;28;20085;-73
2023/05/26 09:50:56;;;;;;;16.42;2.80;;;;;;;20.78;58.90;101953.19;5160773;28;20121;-73
2023/05/26 09:53:26;;;;;;;10.90;2.97;;;;;;;20.29;60.62;101948.81;5162629;28;20026;-74
2023/05/26 09:56:01;;;;;;;15.80;2.65;;;;;;;21.74;59.49;101947.59;5163431;28;20026;-75
2023/05/26 09:58:33;;;;;;;11.85;2.60;;;;;;;21.52;59.75;101945.31;5160966;28;20518;-74
2023/05/26 10:01:07;;;;;;;12.85;3.08;;;;;;;20.73;59.41;101947.28;5157934;28;20492;-74
2023/05/26 10:03:37;;;;;;;16.15;2.95;;;;;;;20.48;61.04;101943.38;5160936;28;20169;-74
2023/05/26 10:06:08;;;;;;;10.50;2.50;;;;;;;21.27;59.29;101939.69;5160832;28;20036;-74
2023/05/26 10:08:39;;;;;;;12.23;2.75;;;;;;;21.35;57.28;101937.47;5153929;28;20041;-75
2023/05/26 10:11:09;;;;;;;11.48;2.47;;;;;;;21.57;59.40;101939.72;5157385;28;20014;-73
2023/05/26 10:13:40;;;;;;;11.70;2.53;;;;;;;21.13;58.53;101944.97;5161166;28;20037;-76
2023/05/26 10:16:11;;;;;;;10.50;2.83;;;;;;;19.69;62.04;101940.53;5163153;28;20018;-74
2023/05/26 10:18:41;;;;;;;11.85;2.60;;;;;;;20.13;60.05;101933.81;5160962;28;20369;-75
2023/05/26 10:21:13;;;;;;;15.77;4.15;;;;;;;20.20;60.09;101936.06;5160403;28;20049;-75
2023/05/26 10:23:57;;;;;;;13.02;2.90;;;;;;;19.89;61.95;101935.91;5157533;28;20116;-71
2023/05/26 10:26:48;;;;;;;12.20;2.60;;;;;;;20.02;60.45;101926.41;5156866;28;20538;-74
2023/05/26 10:29:26;;;;;;;14.38;2.83;;;;;;;19.80;60.13;101933.72;5160996;28;20034;-74
2023/05/26 10:31:56;;;;;;;14.52;2.42;;;;;;;19.69;59.32;101936.09;5157515;28;20073;-74
2023/05/26 10:34:38;;;;;;;11.85;2.72;;;;;;;19.61;60.10;101925.00;5156403;28;20058;-71
2023/05/26 10:37:13;;;;;;;14.35;2.42;;;;;;;19.58;60.94;101927.81;5159920;28;20033;-73
2023/05/26 10:39:44;;;;;;;17.27;2.50;;;;;;;19.62;59.32;101918.75;5161950;28;20029;-70
2023/05/26 10:42:17;;;;;;;14.40;2.40;;;;;;;19.25;59.90;101929.50;5163308;28;20028;-72
2023/05/26 10:44:51;;;;;;;16.25;2.80;;;;;;;19.43;60.53;101923.28;5159905;28;20620;-75
2023/05/26 10:47:28;;;;;;;12.33;2.60;;;;;;;19.54;59.50;101926.25;5160354;28;20488;-75
2023/05/26 10:49:59;;;;;;;12.70;2.75;;;;;;;19.73;59.63;101920.84;5165583;28;20824;-75
2023/05/26 10:52:47;;;;;;;13.95;2.53;;;;;;;19.58;57.04;101919.03;5161113;28;20555;-74
2023/05/26 10:55:31;;;;;;;9.13;2.58;;;;;;;19.94;57.93;101915.28;5160145;28;20030;-75
2023/05/26 10:58:26;;;;;;;9.80;1.80;;;;;;;19.84;57.28;101919.38;5160229;28;20026;-75
2023/05/26 11:01:02;;;;;;;11.88;2.83;;;;;;;19.82;58.78;101923.03;5159028;28;20026;-75
2023/05/26 11:03:43;;;;;;;13.50;2.60;;;;;;;19.89;59.86;101921.78;5158629;28;20026;-72
2023/05/26 11:06:15;;;;;;;16.58;3.38;;;;;;;19.75;59.82;101919.00;5162650;28;20464;-74
2023/05/26 11:08:48;;;;;;;9.30;2.03;;;;;;;19.75;56.85;101919.00;5156461;28;20146;-72
2023/05/26 11:11:29;;;;;;;10.40;2.05;;;;;;;19.52;54.24;101920.19;5158519;28;20022;-76
2023/05/26 11:14:04;;;;;;;11.20;2.70;;;;;;;19.32;55.71;101915.03;5158563;28;20034;-75
2023/05/26 11:16:36;;;;;;;10.47;1.83;;;;;;;19.09;55.66;101906.47;5156408;28;20153;-70
2023/05/26 11:19:08;;;;;;;7.47;1.90;;;;;;;19.26;56.71;101914.47;5154263;28;20285;-74
2023/05/26 11:21:40;;;;;;;7.82;2.33;;;;;;;19.10;57.72;101911.69;5157271;28;20116;-74
2023/05/26 11:24:11;;;;;;;10.35;1.88;;;;;;;19.21;57.17;101920.00;5156111;28;20025;-76
2023/05/26 11:26:42;;;;;;;10.27;2.30;;;;;;;19.35;59.29;101914.00;5159876;28;20030;-75
2023/05/26 11:29:12;;;;;;;12.00;1.88;;;;;;;19.19;57.49;101911.28;5158337;28;20029;-75
2023/05/26 11:31:47;;;;;;;11.82;2.67;;;;;;;19.09;56.54;101923.22;5153230;28;20065;-76
2023/05/26 11:34:17;;;;;;;9.43;2.28;;;;;;;19.14;56.50;101910.59;5153270;28;20164;-75